Terminal Aerodrome Forecast
Issued by NWS

Current Version | Previous Version | Text Only | Print | Product List | Glossary On
Versions: 1 2 3 4 5 6 7 8 9 10 11 12
000
FTUS45 KLKN 211720
TAFTPH
TAF
KTPH 211720Z 2118/2218 VRB06KT P6SM FEW120 BKN250
     FM212100 18010KT P6SM BKN120
     FM212300 16012G22KT P6SM VCTS BKN120CB
     FM220400 VRB06KT P6SM FEW120 BKN200
     FM220900 01009KT P6SM SCT120=

USA.gov is the U.S. government's official web portal to all federal, state and local government web resources and services.